logo
App data

Dungeon Hearts

Dungeon Hearts fuses the strategy and pattern matching of puzzle games with the kinetic pace of action games. Align magical runes as they flow along the Fatestream to attack, defend, and conjure magic in frenetic battles against a bestiary of fantastic creatures out to use those same runes against you.
Store | Hub | SteamDB | Site
Developer: Cube Roots Publisher: Devolver Digital
Genre: Casual, Indie, Strategy
Languages: English
Tags: Casual (51), Indie (45), Strategy (34), Puzzle (33), Match 3 (32), Action (17), Singleplayer (11), Arcade (10), Fantasy (10), RPG (9), Female Protagonist (5)
Category: Single-player, Steam Trading Cards, Steam Leaderboards
Release date: Mar 28, 2013
Price: $2.99
Score rank: 28% Userscore: 67% Old userscore: 64% Metascore: 73%
Owners: 50,000 .. 100,000
Followers: 462
Peak concurrent players yesterday: 2
Playtime total: 04:03 (average) 01:52 (median)

Steam Spy is still in beta, so expect major bugs.

Owners data:

Access restricted.

This feature is only available to users with special access rights. Sorry.

If you want to proceed, you need to register or log in first and then back Steam Spy on Patreon. Look for Indie or Pro pledge.

Don't forget to use the same email as on Steam Spy!

Audience in 2 weeks:

Access restricted.

This feature is only available to users with special access rights. Sorry.

If you want to proceed, you need to register or log in first and then back Steam Spy on Patreon. Look for Indie or Pro pledge.

Don't forget to use the same email as on Steam Spy!

Peak daily concurrent players:

CCU data courtesy of SteamDB. Used with permission.

Hourly concurrent players:

Daily Twitch stats:

Hourly Twitch stats:

YouTube:

The views data is based on top 50 videos uploaded last week. Actual number of views might be more than the number shown.

The displayed number of videos uploaded yesterday is limited to 50, so if there were more videos uploaded, the number will still show 50.

If the game has commonly used word as its name (like "FEAR" or "Volume") its number of Youtube views might be wrong.

Games similar to this one:

# Game Release date
Price
Score rank
(Userscore / Metascore)
Owners
Players
Playtime (Median)
1 Slime-san: Superslime Edition Apr 7, 2017 $14.99100% (100%/78%)20,000 .. 50,0000%00:00 (00:00)
2 Green Elephant 2D Apr 20, 2017 $1.9995% (96%)50,000 .. 100,0000%00:00 (00:00)
3 Deadly Sin 2 May 12, 2014 $4.99N/A (N/A)100,000 .. 200,0001.21%00:55 (00:36)
4 Fenix Rage Sep 24, 2014 $14.99N/A (N/A/75%)20,000 .. 50,0000%00:00 (00:00)
5 Invisigun Heroes Feb 8, 2017 Free79% (91%)20,000 .. 50,0000%00:00 (00:00)
6 Elven Assassin Sep 10, 2016 $14.9976% (90%)0 .. 20,0000%00:00 (00:00)
7 Port of Call Aug 28, 2015 Free76% (90%)100,000 .. 200,0000%00:00 (00:00)
8 Avernum 6 May 11, 2012 $4.99N/A (N/A)50,000 .. 100,0000%00:00 (00:00)
9 Konung 2 Apr 23, 2014 $2.9972% (89%/35%)20,000 .. 50,0000%00:00 (00:00)
10 Offspring Fling! May 11, 2012 $7.9972% (89%/79%)200,000 .. 500,0000.25%05:13 (01:44)
11 INK Aug 5, 2015 $4.9967% (87%/68%)200,000 .. 500,0000.76%01:38 (01:37)
12 Sublevel Zero Redux Oct 8, 2015 $14.9967% (87%/71%)0 .. 20,0000%00:00 (00:00)
13 They Breathe May 23, 2014 $1.9967% (87%)50,000 .. 100,0000%00:00 (00:00)
14 Freaking Meatbags Feb 4, 2015 $9.9967% (87%/69%)20,000 .. 50,0000%00:00 (00:00)
15 The Basement Collection Aug 31, 2012 $3.9964% (86%)200,000 .. 500,0000%00:00 (00:00)
16 Eschalon: Book I Feb 10, 2009 Free64% (86%/75%)50,000 .. 100,0000%00:00 (00:00)
17 Evolution VR Feb 3, 2017 $9.9964% (86%)20,000 .. 50,0000%00:00 (00:00)
18 Plug & Play Mar 5, 2015 $2.9961% (85%)100,000 .. 200,0001.6%00:16 (00:08)
19 BADLAND: Game of the Year Edition May 26, 2015 $9.9961% (85%/79%)100,000 .. 200,0001.05%00:11 (00:11)
20 A Bird Story Nov 7, 2014 $3.9958% (84%/66%)200,000 .. 500,0000.38%00:01 (00:00)
21 Exoplanet: First Contact Dec 9, 2016 $19.9953% (82%)0 .. 20,0000%00:00 (00:00)
22 DarkMaus Jan 26, 2016 $9.9951% (81%/83%)20,000 .. 50,0000%00:00 (00:00)
23 ChromaGun Feb 16, 2016 $12.9951% (81%)0 .. 20,0004.35%02:58 (00:59)
24 Paranormal Activity: The Lost Soul Aug 15, 2017 $29.9949% (80%)20,000 .. 50,0000%00:00 (00:00)
25 Project Temporality May 2014 $14.99N/A (N/A)20,000 .. 50,0000%00:00 (00:00)
26 SickBrick Jan 30, 2015 $19.99N/A (N/A)50,000 .. 100,0000%00:00 (00:00)
27 Wizorb Mar 14, 2012 $2.9943% (77%/81%)200,000 .. 500,0000.33%01:35 (00:31)
28 SAELIG Jun 30, 2017 $14.9943% (77%)0 .. 20,00012.5%01:08 (00:22)
29 Sandmason May 4, 2015 $3.99N/A (N/A)0 .. 20,0000%00:00 (00:00)
30 Where's My Mommy? Mar 1, 2016 $5.9941% (76%)0 .. 20,0000%00:00 (00:00)
31 Radiation Island Nov 29, 2016 $9.9939% (75%)0 .. 20,0000%00:00 (00:00)
32 Avernum 5 May 11, 2012 $4.99N/A (N/A)50,000 .. 100,0000%00:00 (00:00)
33 Lovely Planet Arcade Jul 22, 2016 $5.9939% (75%/78%)0 .. 20,0000%00:00 (00:00)
34 Reaper - Tale of a Pale Swordsman Feb 7, 2014 $4.9937% (74%)50,000 .. 100,0000%00:00 (00:00)
35 Eternal Winter Nov 24, 2014 $9.9935% (73%)20,000 .. 50,0000%00:00 (00:00)
36 Spirits Sep 4, 2012 $3.9935% (73%)200,000 .. 500,0000.27%04:18 (01:26)
37 Secrets of Rætikon Apr 17, 2014 $9.9933% (72%)100,000 .. 200,0000%00:00 (00:00)
38 Artifact Adventure May 19, 2015 $3.4933% (72%)0 .. 20,0000%00:00 (00:00)
39 Hotel Anatolia Mar 20, 2017 $0.9933% (72%)100,000 .. 200,0000%00:00 (00:00)
40 Cart Racer Jun 5, 2017 $0.9932% (71%)0 .. 20,0000%00:00 (00:00)
41 A Virus Named TOM Aug 1, 2012 $9.9932% (71%/65%)200,000 .. 500,0000%00:00 (00:00)
42 The Sacred Tears TRUE Sep 25, 2014 $9.99N/A (N/A)20,000 .. 50,0000%00:00 (00:00)
43 Project Explore Aug 10, 2017 $4.9928% (69%)0 .. 20,0000%00:00 (00:00)
44 Sol Trader Jun 6, 2016 $19.99N/A (N/A)0 .. 20,0000%00:00 (00:00)
45 Kill The Bad Guy May 28, 2014 $9.9927% (68%)50,000 .. 100,0000%00:00 (00:00)
46 Aaru's Awakening Feb 23, 2015 $14.99N/A (N/A)20,000 .. 50,0000%00:00 (00:00)
47 Dark Quest Jan 21, 2015 $2.9920% (63%)0 .. 20,0000%00:00 (00:00)
48 The Deep Paths: Labyrinth Of Andokost Oct 26, 2016 $5.9919% (62%)0 .. 20,0000%00:00 (00:00)
49 Warlocks vs Shadows Aug 19, 2015 $13.9918% (61%/68%)20,000 .. 50,0000%00:00 (00:00)
50 Noir Syndrome Jun 4, 2014 $6.9918% (61%)20,000 .. 50,0000%00:00 (00:00)
51 CodeSpells Sep 18, 2015 $19.9913% (56%)0 .. 20,0000%00:00 (00:00)
52 HoCWar Dec 29, 2016 Free11% (52%)20,000 .. 50,0001.15%00:04 (00:01)
53 Lost in a Forest Jan 26, 2015 $1.9910% (51%)0 .. 20,0000%00:00 (00:00)
54 The Exiled Feb 23, 2017 Free9% (49%)20,000 .. 50,0000%00:00 (00:00)
55 Dungeons: The Eye of Draconus Aug 11, 2014 $3.998% (48%)20,000 .. 50,0000%00:00 (00:00)
56 Deadly Sin Mar 27, 2015 $4.99N/A (N/A)0 .. 20,0002.56%00:05 (00:01)
57 NS2: Combat Oct 31, 2014 $5.998% (47%)0 .. 20,0000%00:00 (00:00)
58 TUG Mar 28, 2014 N/A8% (47%)20,000 .. 50,0000%00:00 (00:00)
59 Star Nomad Dec 29, 2014 $1.99N/A (N/A)0 .. 20,0000%00:00 (00:00)
60 GiAnt Aug 2, 2016 $2.99N/A (N/A)0 .. 20,0000%00:00 (00:00)
61 Coldfire Keep May 9, 2014 $4.99N/A (N/A)20,000 .. 50,0000%00:00 (00:00)
62 Corona MotorSport Mar 13, 2015 $9.99N/A (N/A)0 .. 20,0000%00:00 (00:00)
63 Forsaken Fortress Strategy Sep 18, 2015 $6.692% (31%)0 .. 20,0000%00:00 (00:00)
64 Guise Of The Wolf Jan 24, 2014 $2.992% (30%)0 .. 20,0000%00:00 (00:00)
65 Isomer Jul 11, 2014 $9.99N/A (N/A)0 .. 20,0000%00:00 (00:00)

Owners of this game also own:

Access restricted.

This feature is only available to users with special access rights. Sorry.

If you want to proceed, you need to register or log in first and then back Steam Spy on Patreon. Look for Indie or Pro pledge.

Don't forget to use the same email as on Steam Spy!

Playtime distribution:

Access restricted.

This feature is only available to users with special access rights. Sorry.

If you want to proceed, you need to register or log in first and then back Steam Spy on Patreon. Look for Indie or Pro pledge.

Don't forget to use the same email as on Steam Spy!

Playtime (2 weeks):

Access restricted.

This feature is only available to users with special access rights. Sorry.

If you want to proceed, you need to register or log in first and then back Steam Spy on Patreon. Look for Indie or Pro pledge.

Don't forget to use the same email as on Steam Spy!

User reviews:

Login required.

Please register or log in to see this information.